sensor_id;sensor_type;location;lat;lon;timestamp;temperature;humidity
37460;DHT22;23318;50.966;5.284;2023-02-12T00:02:16;9.70;99.90
37460;DHT22;23318;50.966;5.284;2023-02-12T00:04:41;9.60;99.90
37460;DHT22;23318;50.966;5.284;2023-02-12T00:07:07;9.60;99.90
37460;DHT22;23318;50.966;5.284;2023-02-12T00:09:33;9.60;99.90
37460;DHT22;23318;50.966;5.284;2023-02-12T00:11:58;9.60;99.90
37460;DHT22;23318;50.966;5.284;2023-02-12T00:14:24;9.60;99.90
37460;DHT22;23318;50.966;5.284;2023-02-12T00:16:50;9.50;99.90
37460;DHT22;23318;50.966;5.284;2023-02-12T00:19:16;9.50;99.90
37460;DHT22;23318;50.966;5.284;2023-02-12T00:21:42;8.60;99.90
37460;DHT22;23318;50.966;5.284;2023-02-12T00:24:07;8.10;99.90
37460;DHT22;23318;50.966;5.284;2023-02-12T00:26:35;8.20;99.90
37460;DHT22;23318;50.966;5.284;2023-02-12T00:29:01;8.60;99.90
37460;DHT22;23318;50.966;5.284;2023-02-12T00:31:29;8.70;99.90
37460;DHT22;23318;50.966;5.284;2023-02-12T00:33:55;8.70;99.90
37460;DHT22;23318;50.966;5.284;2023-02-12T00:36:23;8.40;99.90
37460;DHT22;23318;50.966;5.284;2023-02-12T00:38:51;8.60;99.90
37460;DHT22;23318;50.966;5.284;2023-02-12T00:41:17;9.00;99.90
37460;DHT22;23318;50.966;5.284;2023-02-12T00:43:42;9.20;99.90
37460;DHT22;23318;50.966;5.284;2023-02-12T00:46:08;9.30;99.90
37460;DHT22;23318;50.966;5.284;2023-02-12T00:48:35;9.40;99.90
37460;DHT22;23318;50.966;5.284;2023-02-12T00:51:01;9.40;99.90
37460;DHT22;23318;50.966;5.284;2023-02-12T00:53:27;9.40;99.90
37460;DHT22;23318;50.966;5.284;2023-02-12T00:55:53;9.40;99.90
37460;DHT22;23318;50.966;5.284;2023-02-12T00:58:19;9.40;99.90
37460;DHT22;23318;50.966;5.284;2023-02-12T01:00:45;9.50;99.90
37460;DHT22;23318;50.966;5.284;2023-02-12T01:03:10;9.30;99.90
37460;DHT22;23318;50.966;5.284;2023-02-12T01:05:36;9.20;99.90
37460;DHT22;23318;50.966;5.284;2023-02-12T01:08:02;9.20;99.90
37460;DHT22;23318;50.966;5.284;2023-02-12T01:10:28;9.20;99.90
37460;DHT22;23318;50.966;5.284;2023-02-12T01:12:54;9.30;99.90
37460;DHT22;23318;50.966;5.284;2023-02-12T01:15:21;9.20;99.90
37460;DHT22;23318;50.966;5.284;2023-02-12T01:17:46;9.20;99.90
37460;DHT22;23318;50.966;5.284;2023-02-12T01:20:15;9.30;99.90
37460;DHT22;23318;50.966;5.284;2023-02-12T01:22:44;9.40;99.90
37460;DHT22;23318;50.966;5.284;2023-02-12T01:25:10;9.40;99.90
37460;DHT22;23318;50.966;5.284;2023-02-12T01:27:36;9.30;99.90
37460;DHT22;23318;50.966;5.284;2023-02-12T01:30:02;9.20;99.90
37460;DHT22;23318;50.966;5.284;2023-02-12T01:32:28;9.30;99.90
37460;DHT22;23318;50.966;5.284;2023-02-12T01:34:54;9.20;99.90
37460;DHT22;23318;50.966;5.284;2023-02-12T01:37:19;9.20;99.90
37460;DHT22;23318;50.966;5.284;2023-02-12T01:39:45;9.20;99.90
37460;DHT22;23318;50.966;5.284;2023-02-12T01:42:12;9.20;99.90
37460;DHT22;23318;50.966;5.284;2023-02-12T01:47:27;9.20;99.90
37460;DHT22;23318;50.966;5.284;2023-02-12T01:49:52;8.60;99.90
37460;DHT22;23318;50.966;5.284;2023-02-12T01:52:31;8.60;99.90
37460;DHT22;23318;50.966;5.284;2023-02-12T01:55:02;8.80;99.90
37460;DHT22;23318;50.966;5.284;2023-02-12T01:57:32;9.00;99.90
37460;DHT22;23318;50.966;5.284;2023-02-12T02:00:01;8.80;99.90
37460;DHT22;23318;50.966;5.284;2023-02-12T02:02:28;8.50;99.90
37460;DHT22;23318;50.966;5.284;2023-02-12T02:04:58;8.70;99.90
37460;DHT22;23318;50.966;5.284;2023-02-12T02:07:24;8.60;99.90
37460;DHT22;23318;50.966;5.284;2023-02-12T02:09:50;8.30;99.90
37460;DHT22;23318;50.966;5.284;2023-02-12T02:12:16;8.30;99.90
37460;DHT22;23318;50.966;5.284;2023-02-12T02:15:01;8.40;99.90
37460;DHT22;23318;50.966;5.284;2023-02-12T02:30:56;9.20;99.90
37460;DHT22;23318;50.966;5.284;2023-02-12T02:33:38;9.20;99.90
37460;DHT22;23318;50.966;5.284;2023-02-12T02:39:02;9.10;99.90
37460;DHT22;23318;50.966;5.284;2023-02-12T02:41:45;9.10;99.90
37460;DHT22;23318;50.966;5.284;2023-02-12T02:44:17;9.00;99.90
37460;DHT22;23318;50.966;5.284;2023-02-12T02:46:48;9.00;99.90
37460;DHT22;23318;50.966;5.284;2023-02-12T02:50:08;9.00;99.90
37460;DHT22;23318;50.966;5.284;2023-02-12T02:52:11;9.00;99.90
37460;DHT22;23318;50.966;5.284;2023-02-12T02:54:48;8.70;99.90
37460;DHT22;23318;50.966;5.284;2023-02-12T02:57:27;8.60;99.90
37460;DHT22;23318;50.966;5.284;2023-02-12T03:00:00;8.70;99.90
37460;DHT22;23318;50.966;5.284;2023-02-12T03:02:33;8.90;99.90
37460;DHT22;23318;50.966;5.284;2023-02-12T03:05:05;9.00;99.90
37460;DHT22;23318;50.966;5.284;2023-02-12T03:07:42;8.90;99.90
37460;DHT22;23318;50.966;5.284;2023-02-12T03:10:17;9.00;99.90
37460;DHT22;23318;50.966;5.284;2023-02-12T03:12:53;9.00;99.90
37460;DHT22;23318;50.966;5.284;2023-02-12T03:15:33;8.90;99.90
37460;DHT22;23318;50.966;5.284;2023-02-12T03:18:04;8.90;99.90
37460;DHT22;23318;50.966;5.284;2023-02-12T03:20:35;9.00;99.90
37460;DHT22;23318;50.966;5.284;2023-02-12T03:23:10;8.90;99.90
37460;DHT22;23318;50.966;5.284;2023-02-12T03:25:57;9.00;99.90
37460;DHT22;23318;50.966;5.284;2023-02-12T03:28:35;9.10;99.90
37460;DHT22;23318;50.966;5.284;2023-02-12T03:31:18;9.10;99.90
37460;DHT22;23318;50.966;5.284;2023-02-12T03:36:45;9.00;99.90
37460;DHT22;23318;50.966;5.284;2023-02-12T03:42:02;9.00;99.90
37460;DHT22;23318;50.966;5.284;2023-02-12T03:52:37;7.70;99.90
37460;DHT22;23318;50.966;5.284;2023-02-12T03:55:04;7.60;99.90
37460;DHT22;23318;50.966;5.284;2023-02-12T03:57:33;8.00;99.90
37460;DHT22;23318;50.966;5.284;2023-02-12T04:00:08;8.40;99.90
37460;DHT22;23318;50.966;5.284;2023-02-12T04:02:35;8.60;99.90
37460;DHT22;23318;50.966;5.284;2023-02-12T04:05:08;8.80;99.90
37460;DHT22;23318;50.966;5.284;2023-02-12T04:07:40;8.90;99.90
37460;DHT22;23318;50.966;5.284;2023-02-12T04:10:06;8.00;99.90
37460;DHT22;23318;50.966;5.284;2023-02-12T04:18:18;8.50;99.90
37460;DHT22;23318;50.966;5.284;2023-02-12T04:24:02;8.90;99.90
37460;DHT22;23318;50.966;5.284;2023-02-12T04:27:02;8.90;99.90
37460;DHT22;23318;50.966;5.284;2023-02-12T04:32:23;8.50;99.90
37460;DHT22;23318;50.966;5.284;2023-02-12T04:35:05;8.60;99.90
37460;DHT22;23318;50.966;5.284;2023-02-12T04:37:38;8.60;99.90
37460;DHT22;23318;50.966;5.284;2023-02-12T04:40:08;8.40;99.90
37460;DHT22;23318;50.966;5.284;2023-02-12T04:42:46;8.30;99.90
37460;DHT22;23318;50.966;5.284;2023-02-12T04:45:15;8.50;99.90
37460;DHT22;23318;50.966;5.284;2023-02-12T04:47:41;8.60;99.90
37460;DHT22;23318;50.966;5.284;2023-02-12T04:50:07;8.80;99.90
37460;DHT22;23318;50.966;5.284;2023-02-12T04:52:33;8.90;99.90
37460;DHT22;23318;50.966;5.284;2023-02-12T04:54:59;8.90;99.90
37460;DHT22;23318;50.966;5.284;2023-02-12T04:57:25;8.90;99.90
37460;DHT22;23318;50.966;5.284;2023-02-12T04:59:50;8.90;99.90
37460;DHT22;23318;50.966;5.284;2023-02-12T05:02:16;8.90;99.90
37460;DHT22;23318;50.966;5.284;2023-02-12T05:04:41;8.90;99.90
37460;DHT22;23318;50.966;5.284;2023-02-12T05:07:07;8.30;99.90
37460;DHT22;23318;50.966;5.284;2023-02-12T05:09:34;8.10;99.90
37460;DHT22;23318;50.966;5.284;2023-02-12T05:12:00;8.20;99.90
37460;DHT22;23318;50.966;5.284;2023-02-12T05:14:26;8.40;99.90
37460;DHT22;23318;50.966;5.284;2023-02-12T05:16:51;8.40;99.90
37460;DHT22;23318;50.966;5.284;2023-02-12T05:19:17;8.60;99.90
37460;DHT22;23318;50.966;5.284;2023-02-12T05:21:43;8.80;99.90
37460;DHT22;23318;50.966;5.284;2023-02-12T05:24:08;8.20;99.90
37460;DHT22;23318;50.966;5.284;2023-02-12T05:26:35;7.70;99.90
37460;DHT22;23318;50.966;5.284;2023-02-12T05:29:01;7.90;99.90
37460;DHT22;23318;50.966;5.284;2023-02-12T05:31:27;8.20;99.90
37460;DHT22;23318;50.966;5.284;2023-02-12T05:33:53;8.40;99.90
37460;DHT22;23318;50.966;5.284;2023-02-12T05:36:21;8.60;99.90
37460;DHT22;23318;50.966;5.284;2023-02-12T05:38:47;8.60;99.90
37460;DHT22;23318;50.966;5.284;2023-02-12T05:41:16;8.70;99.90
37460;DHT22;23318;50.966;5.284;2023-02-12T05:43:43;8.80;99.90
37460;DHT22;23318;50.966;5.284;2023-02-12T05:46:10;8.30;99.90
37460;DHT22;23318;50.966;5.284;2023-02-12T05:48:35;8.10;99.90
37460;DHT22;23318;50.966;5.284;2023-02-12T05:51:08;8.50;99.90
37460;DHT22;23318;50.966;5.284;2023-02-12T05:53:36;8.80;99.90
37460;DHT22;23318;50.966;5.284;2023-02-12T05:56:29;7.90;99.90
37460;DHT22;23318;50.966;5.284;2023-02-12T05:59:01;7.40;99.90
37460;DHT22;23318;50.966;5.284;2023-02-12T06:01:36;7.70;99.90
37460;DHT22;23318;50.966;5.284;2023-02-12T06:04:05;8.20;99.90
37460;DHT22;23318;50.966;5.284;2023-02-12T06:06:32;8.60;99.90
37460;DHT22;23318;50.966;5.284;2023-02-12T06:08:58;8.70;99.90
37460;DHT22;23318;50.966;5.284;2023-02-12T06:11:25;8.90;99.90
37460;DHT22;23318;50.966;5.284;2023-02-12T06:13:50;8.90;99.90
37460;DHT22;23318;50.966;5.284;2023-02-12T06:18:47;8.90;99.90
37460;DHT22;23318;50.966;5.284;2023-02-12T06:21:13;8.90;99.90
37460;DHT22;23318;50.966;5.284;2023-02-12T06:23:39;8.10;99.90
37460;DHT22;23318;50.966;5.284;2023-02-12T06:26:05;8.30;99.90
37460;DHT22;23318;50.966;5.284;2023-02-12T06:28:31;8.50;99.90
37460;DHT22;23318;50.966;5.284;2023-02-12T06:30:56;8.00;99.90
37460;DHT22;23318;50.966;5.284;2023-02-12T06:33:22;7.90;99.90
37460;DHT22;23318;50.966;5.284;2023-02-12T06:35:48;8.20;99.90
37460;DHT22;23318;50.966;5.284;2023-02-12T06:38:13;8.70;99.90
37460;DHT22;23318;50.966;5.284;2023-02-12T06:40:39;8.90;99.90
37460;DHT22;23318;50.966;5.284;2023-02-12T06:43:05;8.90;99.90
37460;DHT22;23318;50.966;5.284;2023-02-12T06:45:32;8.90;99.90
37460;DHT22;23318;50.966;5.284;2023-02-12T06:47:57;8.90;99.90
37460;DHT22;23318;50.966;5.284;2023-02-12T06:50:23;8.90;99.90
37460;DHT22;23318;50.966;5.284;2023-02-12T06:52:49;8.90;99.90
37460;DHT22;23318;50.966;5.284;2023-02-12T06:55:15;8.90;99.90
37460;DHT22;23318;50.966;5.284;2023-02-12T06:57:41;8.50;99.90
37460;DHT22;23318;50.966;5.284;2023-02-12T07:00:07;8.60;99.90
37460;DHT22;23318;50.966;5.284;2023-02-12T07:02:33;8.70;99.90
37460;DHT22;23318;50.966;5.284;2023-02-12T07:04:59;8.50;99.90
37460;DHT22;23318;50.966;5.284;2023-02-12T07:07:25;8.10;99.90
37460;DHT22;23318;50.966;5.284;2023-02-12T07:09:50;8.40;99.90
37460;DHT22;23318;50.966;5.284;2023-02-12T07:12:16;8.70;99.90
37460;DHT22;23318;50.966;5.284;2023-02-12T07:14:42;8.80;99.90
37460;DHT22;23318;50.966;5.284;2023-02-12T07:17:07;8.90;99.90
37460;DHT22;23318;50.966;5.284;2023-02-12T07:19:34;8.80;99.90
37460;DHT22;23318;50.966;5.284;2023-02-12T07:22:00;8.80;99.90
37460;DHT22;23318;50.966;5.284;2023-02-12T07:24:26;8.90;99.90
37460;DHT22;23318;50.966;5.284;2023-02-12T07:26:52;8.70;99.90
37460;DHT22;23318;50.966;5.284;2023-02-12T07:29:17;8.30;99.90
37460;DHT22;23318;50.966;5.284;2023-02-12T07:31:43;8.50;99.90
37460;DHT22;23318;50.966;5.284;2023-02-12T07:34:09;8.60;99.90
37460;DHT22;23318;50.966;5.284;2023-02-12T07:36:35;8.80;99.90
37460;DHT22;23318;50.966;5.284;2023-02-12T07:39:01;9.00;99.90
37460;DHT22;23318;50.966;5.284;2023-02-12T07:41:29;9.00;99.90
37460;DHT22;23318;50.966;5.284;2023-02-12T07:43:58;9.00;99.90
37460;DHT22;23318;50.966;5.284;2023-02-12T07:46:27;8.70;99.90
37460;DHT22;23318;50.966;5.284;2023-02-12T07:48:55;8.80;99.90
37460;DHT22;23318;50.966;5.284;2023-02-12T07:51:21;8.70;99.90
37460;DHT22;23318;50.966;5.284;2023-02-12T07:53:48;8.90;99.90
37460;DHT22;23318;50.966;5.284;2023-02-12T07:56:19;9.00;99.90
37460;DHT22;23318;50.966;5.284;2023-02-12T07:58:47;8.90;99.90
37460;DHT22;23318;50.966;5.284;2023-02-12T08:01:19;8.80;99.90
37460;DHT22;23318;50.966;5.284;2023-02-12T08:03:46;9.10;99.90
37460;DHT22;23318;50.966;5.284;2023-02-12T08:06:16;9.30;99.90
37460;DHT22;23318;50.966;5.284;2023-02-12T08:08:41;9.50;99.90
37460;DHT22;23318;50.966;5.284;2023-02-12T08:11:09;9.60;99.90
37460;DHT22;23318;50.966;5.284;2023-02-12T08:13:36;9.70;99.90
37460;DHT22;23318;50.966;5.284;2023-02-12T08:16:04;9.60;99.90
37460;DHT22;23318;50.966;5.284;2023-02-12T08:18:31;9.60;99.90
37460;DHT22;23318;50.966;5.284;2023-02-12T08:21:07;9.50;99.90
37460;DHT22;23318;50.966;5.284;2023-02-12T08:23:34;9.50;99.90
37460;DHT22;23318;50.966;5.284;2023-02-12T08:26:12;9.40;99.90
37460;DHT22;23318;50.966;5.284;2023-02-12T08:28:42;9.50;99.90
37460;DHT22;23318;50.966;5.284;2023-02-12T08:31:14;9.30;99.90
37460;DHT22;23318;50.966;5.284;2023-02-12T08:33:40;9.40;99.90
37460;DHT22;23318;50.966;5.284;2023-02-12T08:36:09;9.60;99.90
37460;DHT22;23318;50.966;5.284;2023-02-12T08:38:36;9.50;99.90
37460;DHT22;23318;50.966;5.284;2023-02-12T08:41:04;9.40;99.90
37460;DHT22;23318;50.966;5.284;2023-02-12T08:43:30;9.40;99.90
37460;DHT22;23318;50.966;5.284;2023-02-12T08:46:08;9.50;99.90
37460;DHT22;23318;50.966;5.284;2023-02-12T08:48:34;9.50;99.90
37460;DHT22;23318;50.966;5.284;2023-02-12T08:51:04;9.60;99.90
37460;DHT22;23318;50.966;5.284;2023-02-12T08:53:31;9.70;99.90
37460;DHT22;23318;50.966;5.284;2023-02-12T08:55:56;9.80;99.90
37460;DHT22;23318;50.966;5.284;2023-02-12T08:58:22;9.90;99.90
37460;DHT22;23318;50.966;5.284;2023-02-12T09:00:48;10.00;99.90
37460;DHT22;23318;50.966;5.284;2023-02-12T09:03:13;10.00;99.90
37460;DHT22;23318;50.966;5.284;2023-02-12T09:05:40;10.00;99.90
37460;DHT22;23318;50.966;5.284;2023-02-12T09:08:06;9.80;99.90
37460;DHT22;23318;50.966;5.284;2023-02-12T09:10:32;9.80;99.90
37460;DHT22;23318;50.966;5.284;2023-02-12T09:12:58;10.00;99.90
37460;DHT22;23318;50.966;5.284;2023-02-12T09:15:24;10.00;99.90
37460;DHT22;23318;50.966;5.284;2023-02-12T09:17:50;10.20;99.90
37460;DHT22;23318;50.966;5.284;2023-02-12T09:20:16;10.20;99.90
37460;DHT22;23318;50.966;5.284;2023-02-12T09:22:42;10.20;99.90
37460;DHT22;23318;50.966;5.284;2023-02-12T09:25:07;10.30;99.90
37460;DHT22;23318;50.966;5.284;2023-02-12T09:27:33;10.40;99.90
37460;DHT22;23318;50.966;5.284;2023-02-12T09:29:59;10.10;99.90
37460;DHT22;23318;50.966;5.284;2023-02-12T09:32:24;10.20;99.90
37460;DHT22;23318;50.966;5.284;2023-02-12T09:34:50;10.30;99.90
37460;DHT22;23318;50.966;5.284;2023-02-12T09:37:15;10.10;99.90
37460;DHT22;23318;50.966;5.284;2023-02-12T09:39:41;9.40;99.90
37460;DHT22;23318;50.966;5.284;2023-02-12T09:51:01;10.30;99.90
37460;DHT22;23318;50.966;5.284;2023-02-12T09:53:30;10.30;99.90
37460;DHT22;23318;50.966;5.284;2023-02-12T09:55:56;10.30;99.90
37460;DHT22;23318;50.966;5.284;2023-02-12T10:00:55;10.30;99.90
37460;DHT22;23318;50.966;5.284;2023-02-12T10:03:21;10.30;99.90
37460;DHT22;23318;50.966;5.284;2023-02-12T10:05:55;10.40;99.90
37460;DHT22;23318;50.966;5.284;2023-02-12T10:26:32;10.90;99.90
37460;DHT22;23318;50.966;5.284;2023-02-12T10:29:24;11.00;99.90
37460;DHT22;23318;50.966;5.284;2023-02-12T10:34:37;11.20;99.90
37460;DHT22;23318;50.966;5.284;2023-02-12T10:40:05;11.30;99.90
37460;DHT22;23318;50.966;5.284;2023-02-12T10:42:42;11.20;99.90
37460;DHT22;23318;50.966;5.284;2023-02-12T10:45:20;11.20;99.90
37460;DHT22;23318;50.966;5.284;2023-02-12T10:47:51;11.20;99.90
37460;DHT22;23318;50.966;5.284;2023-02-12T10:50:54;11.20;99.90
37460;DHT22;23318;50.966;5.284;2023-02-12T10:55:47;11.30;99.90
37460;DHT22;23318;50.966;5.284;2023-02-12T10:58:21;11.40;99.90
37460;DHT22;23318;50.966;5.284;2023-02-12T11:00:58;11.50;99.90
37460;DHT22;23318;50.966;5.284;2023-02-12T11:03:30;11.70;99.90
37460;DHT22;23318;50.966;5.284;2023-02-12T11:06:14;11.80;99.90
37460;DHT22;23318;50.966;5.284;2023-02-12T11:08:41;11.90;99.90
37460;DHT22;23318;50.966;5.284;2023-02-12T11:11:10;11.90;99.90
37460;DHT22;23318;50.966;5.284;2023-02-12T11:13:40;11.70;99.90
37460;DHT22;23318;50.966;5.284;2023-02-12T11:16:07;11.80;99.90
37460;DHT22;23318;50.966;5.284;2023-02-12T11:18:34;12.00;99.90
37460;DHT22;23318;50.966;5.284;2023-02-12T11:21:08;12.20;99.90
37460;DHT22;23318;50.966;5.284;2023-02-12T11:23:35;12.20;99.90
37460;DHT22;23318;50.966;5.284;2023-02-12T11:29:18;12.10;99.90
37460;DHT22;23318;50.966;5.284;2023-02-12T11:32:02;11.80;99.90
37460;DHT22;23318;50.966;5.284;2023-02-12T11:34:28;11.60;99.90
37460;DHT22;23318;50.966;5.284;2023-02-12T11:36:55;11.70;99.90
37460;DHT22;23318;50.966;5.284;2023-02-12T11:44:35;12.00;99.90
37460;DHT22;23318;50.966;5.284;2023-02-12T11:47:04;12.00;99.90
37460;DHT22;23318;50.966;5.284;2023-02-12T11:50:06;12.00;99.90
37460;DHT22;23318;50.966;5.284;2023-02-12T11:52:36;11.90;99.90
37460;DHT22;23318;50.966;5.284;2023-02-12T11:55:10;11.90;99.90
37460;DHT22;23318;50.966;5.284;2023-02-12T12:03:11;11.50;99.90
37460;DHT22;23318;50.966;5.284;2023-02-12T12:05:46;11.60;99.90
37460;DHT22;23318;50.966;5.284;2023-02-12T12:08:54;11.70;99.90
37460;DHT22;23318;50.966;5.284;2023-02-12T12:11:39;11.50;99.90
37460;DHT22;23318;50.966;5.284;2023-02-12T12:17:04;11.90;99.90
37460;DHT22;23318;50.966;5.284;2023-02-12T12:30:43;12.10;99.90
37460;DHT22;23318;50.966;5.284;2023-02-12T12:47:20;11.90;99.90
37460;DHT22;23318;50.966;5.284;2023-02-12T13:06:34;12.10;99.90
37460;DHT22;23318;50.966;5.284;2023-02-12T13:17:45;12.30;99.90
37460;DHT22;23318;50.966;5.284;2023-02-12T13:23:57;12.40;99.90
37460;DHT22;23318;50.966;5.284;2023-02-12T13:28:40;12.60;99.90
37460;DHT22;23318;50.966;5.284;2023-02-12T13:31:09;12.60;99.90
37460;DHT22;23318;50.966;5.284;2023-02-12T13:33:42;12.40;99.90
37460;DHT22;23318;50.966;5.284;2023-02-12T13:36:13;12.40;99.90
37460;DHT22;23318;50.966;5.284;2023-02-12T13:41:38;12.60;99.90
37460;DHT22;23318;50.966;5.284;2023-02-12T13:44:06;12.70;99.90
37460;DHT22;23318;50.966;5.284;2023-02-12T13:47:19;12.70;99.90
37460;DHT22;23318;50.966;5.284;2023-02-12T13:55:30;12.40;99.90
37460;DHT22;23318;50.966;5.284;2023-02-12T14:01:06;11.80;99.90
37460;DHT22;23318;50.966;5.284;2023-02-12T14:03:34;12.00;99.90
37460;DHT22;23318;50.966;5.284;2023-02-12T14:06:18;12.10;99.90
37460;DHT22;23318;50.966;5.284;2023-02-12T14:09:08;12.10;99.90
37460;DHT22;23318;50.966;5.284;2023-02-12T14:11:49;12.30;99.90
37460;DHT22;23318;50.966;5.284;2023-02-12T14:14:32;12.50;99.90
37460;DHT22;23318;50.966;5.284;2023-02-12T14:24:54;12.30;99.90
37460;DHT22;23318;50.966;5.284;2023-02-12T14:32:59;11.60;99.90
37460;DHT22;23318;50.966;5.284;2023-02-12T14:35:39;11.60;99.90
37460;DHT22;23318;50.966;5.284;2023-02-12T14:41:14;11.80;99.90
37460;DHT22;23318;50.966;5.284;2023-02-12T14:47:48;11.80;99.90
37460;DHT22;23318;50.966;5.284;2023-02-12T14:50:06;11.60;99.90
37460;DHT22;23318;50.966;5.284;2023-02-12T14:52:43;11.50;99.90
37460;DHT22;23318;50.966;5.284;2023-02-12T14:55:23;11.40;99.90
37460;DHT22;23318;50.966;5.284;2023-02-12T14:57:55;11.50;99.90
37460;DHT22;23318;50.966;5.284;2023-02-12T15:00:38;11.40;99.90
37460;DHT22;23318;50.966;5.284;2023-02-12T15:08:39;11.40;99.90
37460;DHT22;23318;50.966;5.284;2023-02-12T15:14:12;11.30;99.90
37460;DHT22;23318;50.966;5.284;2023-02-12T15:22:33;11.40;99.90
37460;DHT22;23318;50.966;5.284;2023-02-12T15:27:48;11.40;99.90
37460;DHT22;23318;50.966;5.284;2023-02-12T15:30:16;11.50;99.90
37460;DHT22;23318;50.966;5.284;2023-02-12T15:32:43;11.30;99.90
37460;DHT22;23318;50.966;5.284;2023-02-12T15:35:35;11.30;99.90
37460;DHT22;23318;50.966;5.284;2023-02-12T15:38:03;11.10;99.90
37460;DHT22;23318;50.966;5.284;2023-02-12T15:40:32;11.10;99.90
37460;DHT22;23318;50.966;5.284;2023-02-12T15:43:00;11.20;99.90
37460;DHT22;23318;50.966;5.284;2023-02-12T15:45:34;11.20;99.90
37460;DHT22;23318;50.966;5.284;2023-02-12T15:48:11;11.20;99.90
37460;DHT22;23318;50.966;5.284;2023-02-12T15:50:53;11.20;99.90
37460;DHT22;23318;50.966;5.284;2023-02-12T15:53:22;11.30;99.90
37460;DHT22;23318;50.966;5.284;2023-02-12T15:55:49;11.50;99.90
37460;DHT22;23318;50.966;5.284;2023-02-12T15:58:28;11.60;99.90
37460;DHT22;23318;50.966;5.284;2023-02-12T16:00:58;11.50;99.90
37460;DHT22;23318;50.966;5.284;2023-02-12T16:03:28;11.50;99.90
37460;DHT22;23318;50.966;5.284;2023-02-12T16:06:01;11.30;99.90
37460;DHT22;23318;50.966;5.284;2023-02-12T16:08:28;11.20;99.90
37460;DHT22;23318;50.966;5.284;2023-02-12T16:10:56;11.10;99.90
37460;DHT22;23318;50.966;5.284;2023-02-12T16:13:30;11.10;99.90
37460;DHT22;23318;50.966;5.284;2023-02-12T16:16:06;11.10;99.90
37460;DHT22;23318;50.966;5.284;2023-02-12T16:18:32;11.30;99.90
37460;DHT22;23318;50.966;5.284;2023-02-12T16:21:18;11.30;99.90
37460;DHT22;23318;50.966;5.284;2023-02-12T16:23:46;11.30;99.90
37460;DHT22;23318;50.966;5.284;2023-02-12T16:26:22;11.40;99.90
37460;DHT22;23318;50.966;5.284;2023-02-12T16:28:53;11.30;99.90
37460;DHT22;23318;50.966;5.284;2023-02-12T16:31:19;11.20;99.90
37460;DHT22;23318;50.966;5.284;2023-02-12T16:33:50;11.00;99.90
37460;DHT22;23318;50.966;5.284;2023-02-12T16:38:58;11.00;99.90
37460;DHT22;23318;50.966;5.284;2023-02-12T16:41:31;11.00;99.90
37460;DHT22;23318;50.966;5.284;2023-02-12T16:46:28;10.90;99.90
37460;DHT22;23318;50.966;5.284;2023-02-12T16:48:56;11.00;99.90
37460;DHT22;23318;50.966;5.284;2023-02-12T16:51:35;11.00;99.90
37460;DHT22;23318;50.966;5.284;2023-02-12T16:54:02;11.10;99.90
37460;DHT22;23318;50.966;5.284;2023-02-12T16:56:32;11.10;99.90
37460;DHT22;23318;50.966;5.284;2023-02-12T16:58:59;11.10;99.90
37460;DHT22;23318;50.966;5.284;2023-02-12T17:01:27;11.10;99.90
37460;DHT22;23318;50.966;5.284;2023-02-12T17:03:54;11.00;99.90
37460;DHT22;23318;50.966;5.284;2023-02-12T17:06:22;11.00;99.90
37460;DHT22;23318;50.966;5.284;2023-02-12T17:08:48;11.10;99.90
37460;DHT22;23318;50.966;5.284;2023-02-12T17:11:14;11.00;99.90
37460;DHT22;23318;50.966;5.284;2023-02-12T17:13:43;11.00;99.90
37460;DHT22;23318;50.966;5.284;2023-02-12T17:16:09;11.20;99.90
37460;DHT22;23318;50.966;5.284;2023-02-12T17:18:35;11.10;99.90
37460;DHT22;23318;50.966;5.284;2023-02-12T17:21:04;11.00;99.90
37460;DHT22;23318;50.966;5.284;2023-02-12T17:23:31;11.00;99.90
37460;DHT22;23318;50.966;5.284;2023-02-12T17:25:56;10.90;99.90
37460;DHT22;23318;50.966;5.284;2023-02-12T17:28:22;10.90;99.90
37460;DHT22;23318;50.966;5.284;2023-02-12T17:30:50;10.80;99.90
37460;DHT22;23318;50.966;5.284;2023-02-12T17:33:15;10.80;99.90
37460;DHT22;23318;50.966;5.284;2023-02-12T17:35:41;11.00;99.90
37460;DHT22;23318;50.966;5.284;2023-02-12T17:38:07;10.90;99.90
37460;DHT22;23318;50.966;5.284;2023-02-12T17:40:36;11.00;99.90
37460;DHT22;23318;50.966;5.284;2023-02-12T17:43:04;11.00;99.90
37460;DHT22;23318;50.966;5.284;2023-02-12T17:45:29;10.90;99.90
37460;DHT22;23318;50.966;5.284;2023-02-12T17:47:55;10.90;99.90
37460;DHT22;23318;50.966;5.284;2023-02-12T17:50:21;11.00;99.90
37460;DHT22;23318;50.966;5.284;2023-02-12T17:52:47;10.80;99.90
37460;DHT22;23318;50.966;5.284;2023-02-12T17:55:12;10.80;99.90
37460;DHT22;23318;50.966;5.284;2023-02-12T17:57:39;10.80;99.90
37460;DHT22;23318;50.966;5.284;2023-02-12T18:00:08;10.80;99.90
37460;DHT22;23318;50.966;5.284;2023-02-12T18:02:34;10.80;99.90
37460;DHT22;23318;50.966;5.284;2023-02-12T18:05:00;10.70;99.90
37460;DHT22;23318;50.966;5.284;2023-02-12T18:07:26;10.80;99.90
37460;DHT22;23318;50.966;5.284;2023-02-12T18:09:51;10.80;99.90
37460;DHT22;23318;50.966;5.284;2023-02-12T18:12:17;10.80;99.90
37460;DHT22;23318;50.966;5.284;2023-02-12T18:14:43;10.80;99.90
37460;DHT22;23318;50.966;5.284;2023-02-12T18:17:09;10.70;99.90
37460;DHT22;23318;50.966;5.284;2023-02-12T18:19:34;10.50;99.90
37460;DHT22;23318;50.966;5.284;2023-02-12T18:22:00;10.50;99.90
37460;DHT22;23318;50.966;5.284;2023-02-12T18:24:26;10.60;99.90
37460;DHT22;23318;50.966;5.284;2023-02-12T18:26:52;10.40;99.90
37460;DHT22;23318;50.966;5.284;2023-02-12T18:29:17;10.70;99.90
37460;DHT22;23318;50.966;5.284;2023-02-12T18:31:43;10.60;99.90
37460;DHT22;23318;50.966;5.284;2023-02-12T18:34:09;10.50;99.90
37460;DHT22;23318;50.966;5.284;2023-02-12T18:36:35;10.50;99.90
37460;DHT22;23318;50.966;5.284;2023-02-12T18:39:00;10.30;99.90
37460;DHT22;23318;50.966;5.284;2023-02-12T18:41:29;10.20;99.90
37460;DHT22;23318;50.966;5.284;2023-02-12T18:43:58;10.30;99.90
37460;DHT22;23318;50.966;5.284;2023-02-12T18:46:26;10.20;99.90
37460;DHT22;23318;50.966;5.284;2023-02-12T18:48:52;10.20;99.90
37460;DHT22;23318;50.966;5.284;2023-02-12T18:51:24;10.10;99.90
37460;DHT22;23318;50.966;5.284;2023-02-12T18:53:58;10.10;99.90
37460;DHT22;23318;50.966;5.284;2023-02-12T18:56:28;10.00;99.90
37460;DHT22;23318;50.966;5.284;2023-02-12T18:58:55;9.90;99.90
37460;DHT22;23318;50.966;5.284;2023-02-12T19:01:21;9.70;99.90
37460;DHT22;23318;50.966;5.284;2023-02-12T19:03:47;9.60;99.90
37460;DHT22;23318;50.966;5.284;2023-02-12T19:06:13;9.50;99.90
37460;DHT22;23318;50.966;5.284;2023-02-12T19:08:39;9.60;99.90
37460;DHT22;23318;50.966;5.284;2023-02-12T19:11:06;9.50;99.90
37460;DHT22;23318;50.966;5.284;2023-02-12T19:13:32;9.40;99.90
37460;DHT22;23318;50.966;5.284;2023-02-12T19:15:58;9.20;99.90
37460;DHT22;23318;50.966;5.284;2023-02-12T19:18:24;9.10;99.90
37460;DHT22;23318;50.966;5.284;2023-02-12T19:20:49;9.00;99.90
37460;DHT22;23318;50.966;5.284;2023-02-12T19:23:15;9.00;99.90
37460;DHT22;23318;50.966;5.284;2023-02-12T19:25:41;8.90;99.90
37460;DHT22;23318;50.966;5.284;2023-02-12T19:28:10;8.80;99.90